createdAt,value
2019-03-19T00:01:49.347Z,98790.58
2019-03-19T00:04:18.579Z,98791.93
2019-03-19T00:06:47.829Z,98792.45
2019-03-19T00:09:17.065Z,98791.53
2019-03-19T00:11:46.333Z,98788.86
2019-03-19T00:14:15.576Z,98795.03
2019-03-19T00:16:44.816Z,98793.73
2019-03-19T00:19:14.060Z,98798.95
2019-03-19T00:21:43.290Z,98796.87
2019-03-19T00:24:12.545Z,98800.95
2019-03-19T00:26:41.801Z,98804.70
2019-03-19T00:29:11.094Z,98815.48
2019-03-19T00:31:40.341Z,98811.92
2019-03-19T00:34:09.580Z,98815.48
2019-03-19T00:36:38.845Z,98825.19
2019-03-19T00:39:08.398Z,98821.88
2019-03-19T00:41:37.661Z,98823.47
2019-03-19T00:44:06.893Z,98817.73
2019-03-19T00:46:36.178Z,98818.49
2019-03-19T00:49:06.864Z,98818.08
2019-03-19T00:51:36.261Z,98814.90
2019-03-19T00:54:15.214Z,98811.90
2019-03-19T00:56:44.466Z,98813.68
2019-03-19T00:59:13.725Z,98818.36
2019-03-19T01:01:42.984Z,98822.91
2019-03-19T01:04:12.239Z,98819.69
2019-03-19T01:06:41.466Z,98818.64
2019-03-19T01:09:10.708Z,98814.43
2019-03-19T01:11:39.959Z,98821.25
2019-03-19T01:14:09.213Z,98819.90
2019-03-19T01:16:38.477Z,98824.28
2019-03-19T01:19:07.710Z,98832.34
2019-03-19T01:21:36.958Z,98823.25
2019-03-19T01:24:06.265Z,98830.20
2019-03-19T01:26:35.568Z,98818.08
2019-03-19T01:29:04.810Z,98819.42
2019-03-19T01:31:34.069Z,98813.48
2019-03-19T01:34:03.300Z,98816.74
2019-03-19T01:36:32.552Z,98810.29
2019-03-19T01:39:01.791Z,98818.08
2019-03-19T01:41:31.043Z,98818.10
2019-03-19T01:44:00.313Z,98817.34
2019-03-19T01:46:29.582Z,98822.72
2019-03-19T01:48:58.851Z,98819.50
2019-03-19T01:51:28.108Z,98822.23
2019-03-19T01:53:57.393Z,98826.23
2019-03-19T01:56:26.666Z,98821.64
2019-03-19T01:58:55.903Z,98833.77
2019-03-19T02:01:25.184Z,98836.47
2019-03-19T02:03:54.423Z,98836.20
2019-03-19T02:06:23.715Z,98836.73
2019-03-19T02:08:52.941Z,98842.66
2019-03-19T02:11:22.210Z,98844.82
2019-03-19T02:13:51.448Z,98849.13
2019-03-19T02:16:22.529Z,98846.44
2019-03-19T02:18:52.152Z,98847.78
2019-03-19T02:21:21.405Z,98847.25
2019-03-19T02:23:50.697Z,98844.86
2019-03-19T02:26:19.964Z,98844.63
2019-03-19T02:28:49.263Z,98846.78
2019-03-19T02:31:18.493Z,98847.31
2019-03-19T02:33:47.735Z,98854.31
2019-03-19T02:36:16.994Z,98858.11
2019-03-19T02:38:46.271Z,98854.85
2019-03-19T02:41:15.561Z,98848.13
2019-03-19T02:43:44.828Z,98864.81
2019-03-19T02:46:14.113Z,98854.31
2019-03-19T02:48:43.352Z,98856.20
2019-03-19T02:51:12.621Z,98862.66
2019-03-19T02:53:41.880Z,98863.98
2019-03-19T02:56:11.155Z,98865.32
2019-03-19T02:58:40.425Z,98866.66
2019-03-19T03:01:09.681Z,98869.12
2019-03-19T03:03:38.924Z,98869.39
2019-03-19T03:06:09.102Z,98866.97
2019-03-19T03:08:38.351Z,98868.59
2019-03-19T03:11:07.622Z,98881.77
2019-03-19T03:13:36.879Z,98888.52
2019-03-19T03:16:06.129Z,98884.48
2019-03-19T03:18:35.394Z,98888.50
2019-03-19T03:21:04.637Z,98890.66
2019-03-19T03:23:33.909Z,98894.39
2019-03-19T03:26:03.152Z,98890.92
2019-03-19T03:28:32.411Z,98892.00
2019-03-19T03:31:01.695Z,98898.72
2019-03-19T03:33:30.982Z,98894.70
2019-03-19T03:36:00.286Z,98900.62
2019-03-19T03:38:29.551Z,98905.47
2019-03-19T03:40:58.821Z,98907.36
2019-03-19T03:43:28.082Z,98910.84
2019-03-19T03:45:57.356Z,98912.19
2019-03-19T03:48:26.590Z,98912.17
2019-03-19T03:50:55.861Z,98914.08
2019-03-19T03:53:25.128Z,98920.80
2019-03-19T03:55:54.371Z,98931.03
2019-03-19T03:58:23.683Z,98925.89
2019-03-19T04:00:52.930Z,98929.42
2019-03-19T04:03:22.214Z,98920.27
2019-03-19T04:05:51.963Z,98927.25
2019-03-19T04:08:21.207Z,98923.22
2019-03-19T04:10:50.511Z,98920.25
2019-03-19T04:13:19.796Z,98924.83
2019-03-19T04:15:49.097Z,98930.76
2019-03-19T04:18:18.391Z,98934.27
2019-03-19T04:20:47.667Z,98928.61
2019-03-19T04:23:16.910Z,98929.39
2019-03-19T04:25:46.149Z,98929.94
2019-03-19T04:28:15.420Z,98929.66
2019-03-19T04:30:44.660Z,98931.55
2019-03-19T04:33:13.915Z,98924.03
2019-03-19T04:35:43.217Z,98935.34
2019-03-19T04:38:12.522Z,98938.30
2019-03-19T04:40:41.763Z,98941.80
2019-03-19T04:43:11.019Z,98948.53
2019-03-19T04:45:40.280Z,98949.86
2019-03-19T04:48:09.530Z,98953.62
2019-03-19T04:50:38.797Z,98956.86
2019-03-19T04:53:08.040Z,98954.72
2019-03-19T04:55:37.300Z,98959.01
2019-03-19T04:58:06.566Z,98960.09
2019-03-19T05:00:35.861Z,98960.10
2019-03-19T05:03:05.290Z,98963.85
2019-03-19T05:05:34.531Z,98957.66
2019-03-19T05:08:03.812Z,98957.13
2019-03-19T05:10:33.040Z,98956.05
2019-03-19T05:13:02.336Z,98962.78
2019-03-19T05:15:31.802Z,98966.28
2019-03-19T05:18:01.132Z,98971.92
2019-03-19T05:20:30.384Z,98971.40
2019-03-19T05:22:59.667Z,98965.48
2019-03-19T05:25:28.922Z,98975.45
2019-03-19T05:27:58.791Z,98976.78
2019-03-19T05:30:28.107Z,98978.14
2019-03-19T05:32:57.350Z,98985.39
2019-03-19T05:35:26.643Z,98994.01
2019-03-19T05:37:55.855Z,98990.50
2019-03-19T05:40:25.124Z,98989.95
2019-03-19T05:42:54.354Z,98995.88
2019-03-19T05:45:23.627Z,98999.91
2019-03-19T05:47:52.866Z,99003.67
2019-03-19T05:50:22.159Z,99006.91
2019-03-19T05:52:51.425Z,99013.37
2019-03-19T05:55:20.724Z,99007.75
2019-03-19T05:57:50.666Z,99017.17
2019-03-19T06:00:20.884Z,99015.81
2019-03-19T06:02:50.385Z,99019.31
2019-03-19T06:05:21.259Z,99032.20
2019-03-19T06:07:51.081Z,99036.21
2019-03-19T06:10:25.883Z,99038.09
2019-03-19T06:12:55.200Z,99036.80
2019-03-19T06:15:24.850Z,99038.67
2019-03-19T06:17:54.658Z,99041.88
2019-03-19T06:20:25.265Z,99049.70
2019-03-19T06:22:55.138Z,99057.50
2019-03-19T06:25:25.692Z,99052.66
2019-03-19T06:28:00.282Z,99059.70
2019-03-19T06:30:27.036Z,99061.88
2019-03-19T06:32:56.754Z,99056.22
2019-03-19T06:35:26.447Z,99062.40
2019-03-19T06:37:56.260Z,99062.14
2019-03-19T06:40:25.799Z,99063.77
2019-03-19T06:42:55.715Z,99062.41
2019-03-19T06:45:25.394Z,99068.06
2019-03-19T06:47:55.144Z,99063.76
2019-03-19T06:50:24.896Z,99060.53
2019-03-19T06:52:54.858Z,99064.58
2019-03-19T06:55:24.821Z,99066.72
2019-03-19T06:57:54.401Z,99074.80
2019-03-19T07:00:23.774Z,99075.86
2019-03-19T07:02:53.148Z,99076.37
2019-03-19T07:05:22.431Z,99077.94
2019-03-19T07:07:51.699Z,99083.14
2019-03-19T07:10:20.954Z,99091.47
2019-03-19T07:12:50.224Z,99092.81
2019-03-19T07:15:19.541Z,99096.28
2019-03-19T07:17:48.825Z,99101.67
2019-03-19T07:20:18.130Z,99113.00
2019-03-19T07:22:47.418Z,99104.25
2019-03-19T07:25:17.991Z,99102.92
2019-03-19T07:27:47.240Z,99101.81
2019-03-19T07:30:17.386Z,99107.77
2019-03-19T07:32:46.634Z,99109.61
2019-03-19T07:35:16.205Z,99115.04
2019-03-19T07:37:45.452Z,99116.47
2019-03-19T07:40:14.863Z,99123.45
2019-03-19T07:42:44.128Z,99116.77
2019-03-19T07:45:14.871Z,99109.98
2019-03-19T07:47:44.181Z,99103.48
2019-03-19T07:50:14.487Z,99106.14
2019-03-19T07:52:43.768Z,99115.55
2019-03-19T07:55:13.044Z,99118.92
2019-03-19T07:57:42.316Z,99120.61
2019-03-19T08:00:13.071Z,99122.98
2019-03-19T08:02:42.534Z,99134.04
2019-03-19T08:05:12.135Z,99132.91
2019-03-19T08:07:41.408Z,99128.33
2019-03-19T08:10:10.949Z,99128.56
2019-03-19T08:12:40.242Z,99132.48
2019-03-19T08:15:11.062Z,99141.64
2019-03-19T08:17:42.772Z,99140.81
2019-03-19T08:20:12.578Z,99137.70
2019-03-19T08:22:41.861Z,99141.53
2019-03-19T08:25:11.153Z,99145.30
2019-03-19T08:27:40.457Z,99150.31
2019-03-19T08:30:12.518Z,99154.67
2019-03-19T08:32:41.813Z,99144.83
2019-03-19T08:35:11.076Z,99148.95
2019-03-19T08:37:40.473Z,99147.20
2019-03-19T08:40:10.801Z,99151.38
2019-03-19T08:42:40.123Z,99147.22
2019-03-19T08:45:10.768Z,99151.94
2019-03-19T08:47:40.006Z,99141.11
2019-03-19T08:50:11.818Z,99147.91
2019-03-19T08:52:41.143Z,99149.30
2019-03-19T08:55:10.491Z,99148.88
2019-03-19T08:57:39.762Z,99145.77
2019-03-19T09:00:12.148Z,99155.86
2019-03-19T09:02:41.426Z,99153.80
2019-03-19T09:05:10.800Z,99161.97
2019-03-19T09:07:40.067Z,99158.73
2019-03-19T09:10:10.105Z,99159.10
2019-03-19T09:12:39.413Z,99164.38
2019-03-19T09:15:10.129Z,99153.16
2019-03-19T09:17:39.441Z,99156.32
2019-03-19T09:20:10.808Z,99167.78
2019-03-19T09:22:40.447Z,99161.19
2019-03-19T09:25:10.053Z,99164.55
2019-03-19T09:27:39.439Z,99166.35
2019-03-19T09:30:10.712Z,99166.35
2019-03-19T09:32:39.984Z,99170.34
2019-03-19T09:35:09.396Z,99174.30
2019-03-19T09:37:44.617Z,99179.15
2019-03-19T09:40:11.031Z,99179.15
2019-03-19T09:42:40.273Z,99186.46
2019-03-19T09:45:09.871Z,99194.00
2019-03-19T09:47:39.140Z,99189.02
2019-03-19T09:50:09.463Z,99189.02
2019-03-19T09:52:38.768Z,99185.28
2019-03-19T09:55:08.839Z,99180.93
2019-03-19T09:57:38.132Z,99179.14
2019-03-19T10:00:09.551Z,99178.30
2019-03-19T10:02:38.791Z,99186.86
2019-03-19T10:05:08.267Z,99186.46
2019-03-19T10:07:37.515Z,99190.31
2019-03-19T10:10:07.386Z,99185.52
2019-03-19T10:12:36.656Z,99185.41
2019-03-19T10:15:06.525Z,99188.78
2019-03-19T10:17:35.818Z,99191.34
2019-03-19T10:20:06.205Z,99188.06
2019-03-19T10:22:35.580Z,99192.45
2019-03-19T10:25:05.572Z,99195.62
2019-03-19T10:27:34.814Z,99185.38
2019-03-19T10:30:04.686Z,99189.98
2019-03-19T10:32:36.225Z,99189.88
2019-03-19T10:35:05.788Z,99190.62
2019-03-19T10:37:35.049Z,99192.94
2019-03-19T10:40:05.055Z,99191.13
2019-03-19T10:42:34.303Z,99199.34
2019-03-19T10:45:03.598Z,99195.06
2019-03-19T10:47:32.855Z,99191.62
2019-03-19T10:50:02.102Z,99192.27
2019-03-19T10:52:31.368Z,99189.10
2019-03-19T10:55:00.637Z,99203.73
2019-03-19T10:57:29.903Z,99208.34
2019-03-19T11:00:08.718Z,99198.68
2019-03-19T11:02:37.986Z,99211.55
2019-03-19T11:05:09.098Z,99209.20
2019-03-19T11:07:38.325Z,99210.05
2019-03-19T11:10:07.898Z,99210.68
2019-03-19T11:12:37.191Z,99207.69
2019-03-19T11:15:07.761Z,99203.73
2019-03-19T11:17:37.091Z,99199.05
2019-03-19T11:20:06.876Z,99196.16
2019-03-19T11:22:36.119Z,99204.33
2019-03-19T11:25:07.134Z,99202.22
2019-03-19T11:27:36.435Z,99199.06
2019-03-19T11:30:08.320Z,99202.84
2019-03-19T11:32:37.586Z,99201.05
2019-03-19T11:35:07.843Z,99196.56
2019-03-19T11:37:37.207Z,99195.91
2019-03-19T11:40:06.982Z,99193.19
2019-03-19T11:42:36.259Z,99198.14
2019-03-19T11:45:07.927Z,99199.13
2019-03-19T11:47:38.054Z,99205.59
2019-03-19T11:50:10.247Z,99204.30
2019-03-19T11:52:40.281Z,99200.44
2019-03-19T11:55:16.337Z,99197.75
2019-03-19T11:57:45.620Z,99199.94
2019-03-19T12:00:18.698Z,99192.92
2019-03-19T12:02:47.945Z,99187.86
2019-03-19T12:05:17.411Z,99182.80
2019-03-19T12:07:46.667Z,99186.80
2019-03-19T12:10:15.919Z,99187.88
2019-03-19T12:12:45.255Z,99188.12
2019-03-19T12:15:14.532Z,99187.44
2019-03-19T12:17:43.824Z,99196.52
2019-03-19T12:20:13.206Z,99195.83
2019-03-19T12:22:42.464Z,99199.44
2019-03-19T12:25:11.863Z,99195.75
2019-03-19T12:27:41.088Z,99200.87
2019-03-19T12:30:21.463Z,99198.75
2019-03-19T12:32:42.320Z,99193.08
2019-03-19T12:35:12.017Z,99195.84
2019-03-19T12:37:42.157Z,99199.77
2019-03-19T12:40:12.845Z,99200.05
2019-03-19T12:42:42.125Z,99194.38
2019-03-19T12:45:13.017Z,99197.46
2019-03-19T12:47:42.293Z,99200.44
2019-03-19T12:50:14.038Z,99203.53
2019-03-19T12:52:43.361Z,99202.98
2019-03-19T12:55:12.604Z,99190.63
2019-03-19T12:57:41.896Z,99197.28
2019-03-19T13:00:16.935Z,99187.80
2019-03-19T13:02:46.181Z,99182.66
2019-03-19T13:05:15.478Z,99187.20
2019-03-19T13:07:44.719Z,99182.02
2019-03-19T13:10:16.038Z,99177.08
2019-03-19T13:12:45.279Z,99172.67
2019-03-19T13:15:15.200Z,99164.34
2019-03-19T13:17:44.768Z,99161.41
2019-03-19T13:20:14.304Z,99161.59
2019-03-19T13:22:43.581Z,99164.33
2019-03-19T13:25:14.440Z,99167.86
2019-03-19T13:27:43.736Z,99170.07
2019-03-19T13:30:15.068Z,99166.04
2019-03-19T13:32:44.303Z,99172.42
2019-03-19T13:35:13.561Z,99174.13
2019-03-19T13:37:42.798Z,99175.24
2019-03-19T13:40:13.429Z,99176.51
2019-03-19T13:42:42.680Z,99181.56
2019-03-19T13:45:12.861Z,99181.28
2019-03-19T13:47:42.328Z,99179.78
2019-03-19T13:50:12.088Z,99182.91
2019-03-19T13:52:41.351Z,99185.92
2019-03-19T13:55:11.615Z,99188.44
2019-03-19T13:57:40.875Z,99182.64
2019-03-19T14:00:12.117Z,99185.02
2019-03-19T14:02:41.356Z,99182.89
2019-03-19T14:05:10.632Z,99182.72
2019-03-19T14:07:39.906Z,99182.52
2019-03-19T14:10:09.991Z,99184.98
2019-03-19T14:12:39.265Z,99185.59
2019-03-19T14:15:10.132Z,99189.45
2019-03-19T14:17:39.410Z,99198.16
2019-03-19T14:20:10.412Z,99194.32
2019-03-19T14:22:39.642Z,99193.78
2019-03-19T14:25:09.356Z,99195.42
2019-03-19T14:27:38.613Z,99188.33
2019-03-19T14:30:10.185Z,99191.16
2019-03-19T14:32:39.419Z,99188.77
2019-03-19T14:35:09.043Z,99194.20
2019-03-19T14:37:38.290Z,99195.59
2019-03-19T14:40:08.620Z,99191.44
2019-03-19T14:42:38.146Z,99187.59
2019-03-19T14:45:07.738Z,99187.45
2019-03-19T14:47:37.151Z,99188.28
2019-03-19T14:50:06.809Z,99190.18
2019-03-19T14:52:36.094Z,99191.08
2019-03-19T14:55:05.674Z,99205.88
2019-03-19T14:57:34.938Z,99202.97
2019-03-19T15:00:05.086Z,99203.78
2019-03-19T15:02:34.345Z,99209.05
2019-03-19T15:05:03.601Z,99205.02
2019-03-19T15:07:32.839Z,99207.83
2019-03-19T15:10:02.173Z,99208.93
2019-03-19T15:12:31.482Z,99205.53
2019-03-19T15:15:00.724Z,99206.33
2019-03-19T15:17:30.035Z,99203.13
2019-03-19T15:19:59.266Z,99206.82
2019-03-19T15:22:32.774Z,99208.38
2019-03-19T15:24:59.650Z,99208.08
2019-03-19T15:27:28.933Z,99208.80
2019-03-19T15:29:58.155Z,99204.93
2019-03-19T15:32:27.466Z,99204.81
2019-03-19T15:34:56.756Z,99207.66
2019-03-19T15:37:25.990Z,99209.66
2019-03-19T15:39:55.266Z,99209.66
2019-03-19T15:42:24.500Z,99209.31
2019-03-19T15:44:53.765Z,99211.28
2019-03-19T15:47:23.298Z,99209.86
2019-03-19T15:49:52.565Z,99208.81
2019-03-19T15:52:21.843Z,99213.51
2019-03-19T15:54:51.104Z,99211.55
2019-03-19T15:57:20.367Z,99218.95
2019-03-19T15:59:49.634Z,99223.93
2019-03-19T16:02:18.941Z,99224.91
2019-03-19T16:04:48.177Z,99236.17
2019-03-19T16:07:17.438Z,99232.81
2019-03-19T16:09:46.725Z,99238.90
2019-03-19T16:12:16.010Z,99236.55
2019-03-19T16:14:45.260Z,99243.53
2019-03-19T16:17:14.567Z,99240.74
2019-03-19T16:19:43.834Z,99238.77
2019-03-19T16:22:13.072Z,99249.05
2019-03-19T16:24:42.340Z,99254.39
2019-03-19T16:27:11.608Z,99252.63
2019-03-19T16:29:40.851Z,99251.50
2019-03-19T16:32:10.462Z,99254.63
2019-03-19T16:34:39.981Z,99255.38
2019-03-19T16:37:09.284Z,99260.56
2019-03-19T16:39:38.531Z,99264.03
2019-03-19T16:42:09.236Z,99270.36
2019-03-19T16:44:40.158Z,99258.34
2019-03-19T16:47:11.012Z,99262.17
2019-03-19T16:49:41.811Z,99271.42
2019-03-19T16:52:12.669Z,99263.89
2019-03-19T16:54:43.420Z,99275.28
2019-03-19T16:57:14.113Z,99271.80
2019-03-19T16:59:44.420Z,99272.79
2019-03-19T17:02:13.643Z,99284.37
2019-03-19T17:04:42.910Z,99287.69
2019-03-19T17:07:12.253Z,99281.91
2019-03-19T17:09:41.730Z,99290.06
2019-03-19T17:12:12.610Z,99291.44
2019-03-19T17:14:41.959Z,99298.75
2019-03-19T17:17:11.302Z,99305.38
2019-03-19T17:19:41.561Z,99311.53
2019-03-19T17:22:10.827Z,99312.48
2019-03-19T17:24:40.098Z,99317.73
2019-03-19T17:27:09.374Z,99315.80
2019-03-19T17:29:38.625Z,99315.63
2019-03-19T17:32:12.927Z,99324.55
2019-03-19T17:34:38.892Z,99328.73
2019-03-19T17:37:08.129Z,99330.67
2019-03-19T17:39:37.425Z,99327.52
2019-03-19T17:42:06.909Z,99330.02
2019-03-19T17:44:36.164Z,99337.72
2019-03-19T17:47:05.446Z,99343.26
2019-03-19T17:49:34.690Z,99345.20
2019-03-19T17:52:03.945Z,99356.45
2019-03-19T17:54:33.207Z,99353.48
2019-03-19T17:57:02.499Z,99356.27
2019-03-19T17:59:31.758Z,99362.34
2019-03-19T18:02:01.088Z,99364.70
2019-03-19T18:04:30.361Z,99374.14
2019-03-19T18:06:59.790Z,99369.90
2019-03-19T18:09:29.053Z,99377.23
2019-03-19T18:11:58.306Z,99375.77
2019-03-19T18:14:27.568Z,99381.52
2019-03-19T18:16:56.811Z,99381.25
2019-03-19T18:19:26.084Z,99381.08
2019-03-19T18:21:55.369Z,99391.67
2019-03-19T18:24:24.664Z,99386.81
2019-03-19T18:26:53.973Z,99386.44
2019-03-19T18:29:23.184Z,99395.72
2019-03-19T18:31:52.468Z,99393.27
2019-03-19T18:34:22.426Z,99396.81
2019-03-19T18:36:51.682Z,99401.66
2019-03-19T18:39:20.988Z,99400.75
2019-03-19T18:41:50.486Z,99408.88
2019-03-19T18:44:23.224Z,99413.83
2019-03-19T18:47:00.078Z,99418.16
2019-03-19T18:49:38.663Z,99419.25
2019-03-19T18:52:12.301Z,99425.28
2019-03-19T18:54:49.036Z,99420.38
2019-03-19T18:57:21.646Z,99423.94
2019-03-19T18:59:52.098Z,99427.20
2019-03-19T19:02:29.805Z,99432.92
2019-03-19T19:05:07.542Z,99431.98
2019-03-19T19:08:00.485Z,99435.25
2019-03-19T19:10:35.371Z,99436.84
2019-03-19T19:13:17.669Z,99436.30
2019-03-19T19:15:52.701Z,99446.09
2019-03-19T19:18:22.597Z,99441.53
2019-03-19T19:20:52.035Z,99450.00
2019-03-19T19:23:21.342Z,99444.66
2019-03-19T19:25:50.959Z,99447.77
2019-03-19T19:28:21.647Z,99460.05
2019-03-19T19:30:54.928Z,99463.03
2019-03-19T19:33:24.702Z,99464.67
2019-03-19T19:35:54.031Z,99462.83
2019-03-19T19:38:24.042Z,99459.61
2019-03-19T19:40:53.804Z,99458.53
2019-03-19T19:43:23.991Z,99460.51
2019-03-19T19:45:53.850Z,99464.91
2019-03-19T19:48:23.246Z,99464.70
2019-03-19T19:50:53.209Z,99465.26
2019-03-19T19:53:22.752Z,99469.03
2019-03-19T19:55:52.050Z,99465.23
2019-03-19T19:58:23.829Z,99468.42
2019-03-19T20:00:53.755Z,99468.96
2019-03-19T20:03:23.131Z,99466.20
2019-03-19T20:05:53.740Z,99468.70
2019-03-19T20:08:23.008Z,99464.09
2019-03-19T20:10:52.290Z,99469.48
2019-03-19T20:13:23.430Z,99458.08
2019-03-19T20:15:52.772Z,99469.98
2019-03-19T20:18:22.088Z,99465.44
2019-03-19T20:20:51.337Z,99467.13
2019-03-19T20:23:20.602Z,99470.61
2019-03-19T20:25:49.866Z,99475.52
2019-03-19T20:28:19.201Z,99475.25
2019-03-19T20:30:48.780Z,99470.47
2019-03-19T20:33:24.843Z,99476.42
2019-03-19T20:35:49.405Z,99480.48
2019-03-19T20:38:18.652Z,99474.53
2019-03-19T20:40:48.064Z,99485.37
2019-03-19T20:43:17.309Z,99490.75
2019-03-19T20:45:46.606Z,99495.64
2019-03-19T20:48:15.885Z,99493.47
2019-03-19T20:50:45.119Z,99503.75
2019-03-19T20:53:14.914Z,99504.28
2019-03-19T20:55:44.202Z,99520.76
2019-03-19T20:58:13.557Z,99515.63
2019-03-19T21:00:43.238Z,99516.72
2019-03-19T21:03:12.969Z,99516.43
2019-03-19T21:05:42.470Z,99521.28
2019-03-19T21:08:11.927Z,99522.94
2019-03-19T21:10:41.440Z,99528.59
2019-03-19T21:13:12.075Z,99531.56
2019-03-19T21:15:42.774Z,99537.20
2019-03-19T21:18:14.237Z,99534.27
2019-03-19T21:20:46.321Z,99537.19
2019-03-19T21:23:16.246Z,99536.67
2019-03-19T21:25:48.415Z,99535.58
2019-03-19T21:28:20.558Z,99545.59
2019-03-19T21:30:50.039Z,99539.91
2019-03-19T21:33:19.710Z,99540.44
2019-03-19T21:35:56.180Z,99551.52
2019-03-19T21:38:26.460Z,99546.64
2019-03-19T21:40:56.287Z,99553.39
2019-03-19T21:43:26.702Z,99554.52
2019-03-19T21:45:59.798Z,99556.58
2019-03-19T21:48:32.049Z,99557.92
2019-03-19T21:51:04.802Z,99562.18
2019-03-19T21:53:36.007Z,99564.65
2019-03-19T21:56:06.355Z,99563.85
2019-03-19T21:58:35.890Z,99569.70
2019-03-19T22:01:05.358Z,99573.17
2019-03-19T22:03:34.870Z,99578.80
2019-03-19T22:06:04.318Z,99583.15
2019-03-19T22:08:34.242Z,99588.84
2019-03-19T22:11:04.973Z,99584.72
2019-03-19T22:13:36.151Z,99586.10
2019-03-19T22:16:07.029Z,99586.03
2019-03-19T22:18:38.411Z,99593.88
2019-03-19T22:21:09.934Z,99590.27
2019-03-19T22:23:39.303Z,99587.86
2019-03-19T22:26:08.825Z,99591.14
2019-03-19T22:28:38.080Z,99595.50
2019-03-19T22:31:07.373Z,99586.84
2019-03-19T22:33:36.804Z,99601.91
2019-03-19T22:36:06.105Z,99602.40
2019-03-19T22:38:35.409Z,99604.86
2019-03-19T22:41:04.632Z,99602.95
2019-03-19T22:43:33.964Z,99612.73
2019-03-19T22:46:03.222Z,99611.50
2019-03-19T22:48:32.529Z,99613.36
2019-03-19T22:51:01.869Z,99610.72
2019-03-19T22:53:31.500Z,99613.64
2019-03-19T22:56:01.501Z,99615.05
2019-03-19T22:58:30.739Z,99609.55
2019-03-19T23:01:00.789Z,99616.97
2019-03-19T23:03:30.066Z,99614.94
2019-03-19T23:05:59.495Z,99616.38
2019-03-19T23:08:28.746Z,99620.27
2019-03-19T23:10:58.062Z,99617.52
2019-03-19T23:13:28.147Z,99619.15
2019-03-19T23:15:57.452Z,99629.11
2019-03-19T23:18:26.707Z,99624.45
2019-03-19T23:20:55.942Z,99622.52
2019-03-19T23:23:25.194Z,99626.61
2019-03-19T23:25:54.513Z,99630.88
2019-03-19T23:28:23.803Z,99631.44
2019-03-19T23:30:53.044Z,99626.59
2019-03-19T23:33:22.318Z,99627.73
2019-03-19T23:35:51.553Z,99629.29
2019-03-19T23:38:20.798Z,99625.89
2019-03-19T23:40:50.091Z,99626.52
2019-03-19T23:43:19.341Z,99628.96
2019-03-19T23:45:48.591Z,99635.87
2019-03-19T23:48:17.853Z,99632.66
2019-03-19T23:50:47.177Z,99628.41
2019-03-19T23:53:16.420Z,99628.58
2019-03-19T23:55:45.691Z,99625.73
2019-03-19T23:58:14.952Z,99627.09
